Time;durP1;ratioP1;P1;durP2;ratioP2;P2;SDS_P1;SDS_P2;PMS_P1;PMS_P2;Temp;Humidity;BMP_temperature;BMP_pressure;BME280_temperature;BME280_humidity;BME280_pressure;Samples;Min_cycle;Max_cycle;Signal;HPM_P1;HPM_P2
2022/11/12 00:00:01;;;;;;;6.70;4.40;;;;;;;21.82;44.75;103156.88;5090166;28;20054;-71
2022/11/12 00:02:45;;;;;;;8.43;4.65;;;;;;;21.93;44.54;103160.25;5092833;28;20093;-71
2022/11/12 00:05:29;;;;;;;6.65;4.25;;;;;;;21.86;44.65;103160.94;5091133;28;20171;-71
2022/11/12 00:08:14;;;;;;;8.57;4.50;;;;;;;21.94;44.52;103155.78;5091501;28;20046;-70
2022/11/12 00:10:58;;;;;;;6.88;4.07;;;;;;;21.88;44.53;103162.47;5090008;28;20887;-71
2022/11/12 00:13:42;;;;;;;9.35;4.47;;;;;;;21.73;45.18;103163.84;5092121;28;20058;-71
2022/11/12 00:16:26;;;;;;;6.72;4.70;;;;;;;21.82;44.96;103146.28;5084627;28;20512;-71
2022/11/12 00:19:10;;;;;;;8.00;4.25;;;;;;;21.77;45.14;103144.03;5085728;28;20516;-70
2022/11/12 00:21:54;;;;;;;6.28;4.70;;;;;;;21.69;45.18;103136.75;5086431;28;20050;-71
2022/11/12 00:24:38;;;;;;;7.90;5.40;;;;;;;21.82;44.67;103148.94;5088101;28;20077;-71
2022/11/12 00:27:22;;;;;;;8.60;4.95;;;;;;;21.75;44.98;103146.00;5084687;28;20170;-71
2022/11/12 00:30:06;;;;;;;6.38;4.30;;;;;;;21.77;44.88;103146.69;5086712;28;20058;-70
2022/11/12 00:32:51;;;;;;;6.88;4.47;;;;;;;21.71;45.01;103148.06;5090904;28;20422;-71
2022/11/12 00:35:35;;;;;;;6.15;4.68;;;;;;;21.66;44.96;103134.38;5092060;28;20055;-70
2022/11/12 00:38:18;;;;;;;8.80;5.03;;;;;;;21.71;45.13;103133.97;5087295;28;20782;-71
2022/11/12 00:41:03;;;;;;;6.93;4.93;;;;;;;21.65;45.31;103132.69;5086484;28;20670;-71
2022/11/12 00:43:47;;;;;;;9.38;5.25;;;;;;;21.57;45.15;103145.81;5083932;28;20079;-71
2022/11/12 00:46:30;;;;;;;7.47;4.78;;;;;;;21.66;45.09;103152.09;5086843;28;20081;-71
2022/11/12 00:49:14;;;;;;;8.48;4.57;;;;;;;21.63;44.89;103158.50;5083405;28;20147;-71
2022/11/12 00:51:58;;;;;;;8.75;4.78;;;;;;;21.63;45.29;103149.72;5085370;28;20046;-71
2022/11/12 00:54:43;;;;;;;8.02;4.68;;;;;;;21.57;45.25;103151.13;5082047;28;20129;-71
2022/11/12 00:57:27;;;;;;;8.98;4.95;;;;;;;21.62;45.17;103170.09;5089198;28;20067;-71
2022/11/12 01:00:15;;;;;;;9.93;5.38;;;;;;;21.68;45.10;103164.25;5086266;28;20139;-71
2022/11/12 01:02:59;;;;;;;8.68;5.50;;;;;;;21.59;45.15;103162.41;5086540;28;20082;-70
2022/11/12 01:05:43;;;;;;;6.82;4.85;;;;;;;21.54;45.17;103164.63;5083636;28;20054;-70
2022/11/12 01:08:29;;;;;;;9.10;5.00;;;;;;;21.62;45.08;103171.91;5083360;28;20054;-70
2022/11/12 01:11:22;;;;;;;10.32;4.22;;;;;;;21.59;45.17;103165.06;5087143;28;20053;-70
2022/11/12 01:14:08;;;;;;;7.10;4.40;;;;;;;21.53;45.45;103168.25;5084739;28;20136;-70
2022/11/12 01:16:52;;;;;;;10.05;4.65;;;;;;;21.54;45.04;103166.44;5087233;28;20085;-70
2022/11/12 01:19:36;;;;;;;10.85;5.57;;;;;;;21.42;45.29;103150.66;5087885;28;20116;-70
2022/11/12 01:22:20;;;;;;;9.45;4.82;;;;;;;21.53;45.21;103164.75;5083649;28;20050;-70
2022/11/12 01:25:05;;;;;;;6.90;4.43;;;;;;;21.48;45.45;103157.22;5082102;28;20131;-70
2022/11/12 01:27:49;;;;;;;9.30;5.32;;;;;;;21.47;45.29;103165.28;5087210;28;20100;-70
2022/11/12 01:30:33;;;;;;;9.80;4.93;;;;;;;21.47;45.33;103157.34;5088934;28;20143;-71
2022/11/12 01:33:16;;;;;;;8.18;4.90;;;;;;;21.51;45.18;103148.97;5085829;28;20511;-70
2022/11/12 01:36:00;;;;;;;8.45;4.95;;;;;;;21.42;45.47;103161.25;5088492;28;20051;-71
2022/11/12 01:38:46;;;;;;;8.82;5.05;;;;;;;21.51;45.00;103146.31;5085172;28;20151;-70
2022/11/12 01:41:34;;;;;;;9.57;4.82;;;;;;;21.35;45.22;103135.38;5087947;28;20051;-70
2022/11/12 01:44:25;;;;;;;8.70;4.57;;;;;;;21.50;45.18;103154.41;5084975;28;20050;-70
2022/11/12 01:47:31;;;;;;;7.35;5.03;;;;;;;21.42;45.14;103150.66;5085957;28;20236;-70
2022/11/12 01:50:22;;;;;;;8.02;4.82;;;;;;;21.45;45.20;103154.00;5082548;28;20122;-70
2022/11/12 01:53:11;;;;;;;6.25;4.18;;;;;;;21.40;45.41;103159.72;5085032;28;20103;-70
2022/11/12 01:55:55;;;;;;;9.32;4.80;;;;;;;21.40;45.50;103144.63;5081603;28;20042;-70
2022/11/12 01:58:40;;;;;;;8.32;4.40;;;;;;;21.41;45.14;103151.63;5083051;28;20162;-71
2022/11/12 02:01:24;;;;;;;7.45;4.50;;;;;;;21.32;45.23;103136.50;5084339;28;20504;-70
2022/11/12 02:04:09;;;;;;;8.63;5.00;;;;;;;21.41;45.30;103145.47;5085647;28;20063;-71
2022/11/12 02:06:56;;;;;;;7.70;5.20;;;;;;;21.33;45.35;103148.78;5084202;28;20062;-70
2022/11/12 02:09:40;;;;;;;9.23;5.13;;;;;;;21.31;45.53;103149.88;5083333;28;20046;-70
2022/11/12 02:15:28;;;;;;;6.63;4.47;;;;;;;21.37;45.15;103133.47;5084779;28;20165;-70
2022/11/12 02:18:12;;;;;;;9.57;5.00;;;;;;;21.35;45.27;103136.22;5087477;28;20090;-70
2022/11/12 02:21:01;;;;;;;7.55;4.43;;;;;;;21.24;45.56;103132.81;5085801;28;20108;-70
2022/11/12 02:23:46;;;;;;;6.03;4.10;;;;;;;21.31;45.51;103140.13;5082099;28;20043;-70
2022/11/12 02:26:36;;;;;;;11.25;4.97;;;;;;;21.31;45.00;103134.00;5082830;28;20055;-70
2022/11/12 02:29:21;;;;;;;6.90;4.38;;;;;;;21.27;45.35;103130.78;5084796;28;20073;-71
2022/11/12 02:32:05;;;;;;;5.93;4.05;;;;;;;21.33;45.20;103140.81;5083765;28;20053;-70
2022/11/12 02:34:49;;;;;;;6.78;4.18;;;;;;;21.34;45.14;103146.97;5082148;28;20058;-70
2022/11/12 02:37:33;;;;;;;7.22;4.70;;;;;;;21.29;45.46;103144.72;5084495;28;20455;-70
2022/11/12 02:40:17;;;;;;;6.15;4.20;;;;;;;21.36;45.02;103129.13;5085359;28;20055;-71
2022/11/12 02:43:01;;;;;;;6.70;4.43;;;;;;;21.28;45.36;103121.84;5086965;28;20430;-71
2022/11/12 02:45:46;;;;;;;6.07;4.63;;;;;;;21.27;45.15;103128.13;5078748;28;20043;-71
2022/11/12 02:48:30;;;;;;;6.97;4.85;;;;;;;21.36;45.25;103145.03;5085229;28;20067;-70
2022/11/12 02:51:14;;;;;;;6.47;4.22;;;;;;;21.28;45.02;103150.16;5085207;28;20143;-70
2022/11/12 02:53:58;;;;;;;5.47;3.80;;;;;;;21.28;45.25;103147.50;5080898;28;20176;-70
2022/11/12 02:56:42;;;;;;;7.90;4.07;;;;;;;21.28;45.14;103145.69;5086745;28;20185;-70
2022/11/12 02:59:26;;;;;;;7.10;4.15;;;;;;;21.21;45.35;103136.59;5082847;28;20257;-70
2022/11/12 03:02:10;;;;;;;10.32;5.25;;;;;;;21.28;45.08;103143.06;5082779;28;20180;-70
2022/11/12 03:04:54;;;;;;;7.80;4.55;;;;;;;21.23;45.15;103141.75;5082930;28;20071;-70
2022/11/12 03:07:38;;;;;;;5.68;4.60;;;;;;;21.19;45.77;103145.66;5084246;28;20070;-70
2022/11/12 03:10:22;;;;;;;8.05;4.80;;;;;;;21.26;45.58;103138.84;5086300;28;20100;-70
2022/11/12 03:13:06;;;;;;;7.05;4.38;;;;;;;21.19;45.28;103141.19;5083926;28;20173;-70
2022/11/12 03:15:58;;;;;;;7.43;4.60;;;;;;;21.16;45.32;103138.78;5083997;28;20057;-70
2022/11/12 03:18:42;;;;;;;6.60;4.50;;;;;;;21.26;45.32;103152.94;5088931;28;20549;-70
2022/11/12 03:21:26;;;;;;;4.88;3.80;;;;;;;21.24;45.31;103149.59;5087023;28;20149;-71
2022/11/12 03:24:10;;;;;;;7.50;4.50;;;;;;;21.18;45.47;103146.59;5087313;28;20557;-70
2022/11/12 03:26:54;;;;;;;6.22;3.95;;;;;;;21.08;45.53;103142.09;5088222;28;20046;-70
2022/11/12 03:29:38;;;;;;;6.50;4.20;;;;;;;21.11;45.66;103141.81;5087241;28;20092;-70
2022/11/12 03:32:22;;;;;;;7.38;3.85;;;;;;;21.11;45.35;103139.19;5083387;28;20164;-71
2022/11/12 03:35:06;;;;;;;9.00;4.75;;;;;;;21.18;45.48;103146.59;5089784;27;20050;-70
2022/11/12 03:37:51;;;;;;;6.25;4.22;;;;;;;21.11;45.38;103148.94;5089299;28;20124;-70
2022/11/12 03:40:35;;;;;;;6.13;4.40;;;;;;;21.09;45.54;103150.88;5088301;28;20094;-71
2022/11/12 03:43:19;;;;;;;7.07;4.40;;;;;;;21.11;45.28;103148.94;5087471;28;22084;-71
2022/11/12 03:46:03;;;;;;;7.38;4.30;;;;;;;21.13;45.40;103152.28;5076335;28;20059;-70
2022/11/12 03:48:47;;;;;;;6.47;4.20;;;;;;;21.13;45.55;103145.19;5091199;28;20078;-70
2022/11/12 03:51:31;;;;;;;5.63;3.85;;;;;;;21.12;45.38;103146.16;5088417;28;20097;-70
2022/11/12 03:54:15;;;;;;;7.18;4.07;;;;;;;21.14;45.34;103138.06;5088470;28;20101;-70
2022/11/12 03:56:59;;;;;;;5.75;3.97;;;;;;;21.16;45.17;103135.28;5087753;28;20147;-71
2022/11/12 03:59:43;;;;;;;5.68;4.13;;;;;;;21.16;45.54;103151.19;5084809;28;20590;-71
2022/11/12 04:02:29;;;;;;;5.63;3.97;;;;;;;21.02;45.50;103145.28;5087009;28;20134;-71
2022/11/12 04:08:37;;;;;;;5.78;4.43;;;;;;;21.00;45.43;103149.00;5087873;28;20108;-70
2022/11/12 04:11:21;;;;;;;7.28;4.50;;;;;;;21.03;45.33;103143.47;5085485;28;20046;-70
2022/11/12 04:14:05;;;;;;;6.70;4.13;;;;;;;21.08;45.20;103143.91;5085901;28;20614;-70
2022/11/12 04:22:54;;;;;;;5.15;3.92;;;;;;;21.05;45.26;103136.22;5086862;28;20109;-70
2022/11/12 04:31:45;;;;;;;7.47;4.35;;;;;;;20.97;45.61;103146.63;5086487;28;20090;-70
2022/11/12 04:34:29;;;;;;;7.38;3.88;;;;;;;21.03;45.41;103148.78;5085516;28;20059;-70
2022/11/12 04:37:13;;;;;;;5.45;4.18;;;;;;;21.03;45.33;103144.31;5088892;28;20067;-71
2022/11/12 04:44:58;;;;;;;5.20;4.05;;;;;;;20.99;45.53;103140.22;5087463;28;20125;-71
2022/11/12 04:46:06;;;;;;;6.25;4.43;;;;;;;20.92;45.34;103128.50;5087437;28;20055;-70
2022/11/12 04:48:50;;;;;;;5.97;4.10;;;;;;;20.95;45.64;103138.81;5088574;28;20172;-70
2022/11/12 04:54:37;;;;;;;4.78;3.78;;;;;;;20.97;45.50;103142.16;5086365;28;20053;-71
2022/11/12 04:57:21;;;;;;;6.68;4.25;;;;;;;21.00;45.08;103136.59;5091854;28;20051;-70
2022/11/12 05:00:06;;;;;;;5.00;3.85;;;;;;;20.90;45.57;103141.03;5086749;28;20058;-71
2022/11/12 05:02:50;;;;;;;6.25;4.30;;;;;;;20.91;45.48;103144.50;5089566;28;20753;-71
2022/11/12 05:05:34;;;;;;;7.80;4.80;;;;;;;21.00;45.13;103146.34;5089658;28;20179;-71
2022/11/12 05:08:18;;;;;;;8.80;4.43;;;;;;;20.91;45.50;103144.50;5085303;28;20054;-70
2022/11/12 05:11:02;;;;;;;5.25;4.00;;;;;;;20.94;45.38;103128.34;5088448;28;20105;-70
2022/11/12 05:13:49;;;;;;;5.47;4.13;;;;;;;20.95;45.20;103137.97;5086643;28;20096;-70
2022/11/12 05:16:33;;;;;;;7.70;4.40;;;;;;;20.96;45.42;103147.59;5089728;28;20054;-71
2022/11/12 05:19:18;;;;;;;5.68;4.05;;;;;;;20.86;45.54;103150.22;5088114;28;20054;-70
2022/11/12 05:22:05;;;;;;;6.68;4.25;;;;;;;20.97;45.30;103157.22;5088172;28;20148;-70
2022/11/12 05:24:49;;;;;;;5.93;4.13;;;;;;;20.92;45.48;103157.63;5085611;28;20104;-71
2022/11/12 05:27:33;;;;;;;6.40;4.35;;;;;;;20.89;45.43;103151.75;5088996;28;20055;-71
2022/11/12 05:30:18;;;;;;;6.60;4.35;;;;;;;20.96;45.38;103148.44;5089351;28;20094;-70
2022/11/12 05:33:02;;;;;;;6.85;4.50;;;;;;;20.87;45.34;103165.13;5087444;28;20082;-70
2022/11/12 05:35:46;;;;;;;6.13;3.95;;;;;;;20.88;45.22;103166.81;5088274;28;20043;-71
2022/11/12 05:38:30;;;;;;;6.70;4.15;;;;;;;20.90;45.41;103170.16;5088024;28;20393;-70
2022/11/12 05:41:14;;;;;;;6.50;4.32;;;;;;;20.87;45.46;103159.00;5088141;28;20160;-71
2022/11/12 05:43:58;;;;;;;5.40;4.13;;;;;;;20.83;45.11;103152.28;5085211;28;20136;-70
2022/11/12 05:46:43;;;;;;;7.00;4.28;;;;;;;20.83;45.51;103153.13;5088499;28;20051;-71
2022/11/12 05:49:27;;;;;;;5.88;4.30;;;;;;;20.78;45.46;103161.44;5087060;28;20132;-70
2022/11/12 05:52:11;;;;;;;6.85;4.47;;;;;;;20.71;45.44;103159.44;5086945;27;20054;-70
2022/11/12 05:54:55;;;;;;;5.05;4.32;;;;;;;20.81;45.54;103171.75;5086379;28;20050;-70
2022/11/12 05:57:39;;;;;;;6.13;4.20;;;;;;;20.87;45.33;103170.44;5088259;28;20116;-70
2022/11/12 06:00:23;;;;;;;5.65;4.20;;;;;;;20.79;45.63;103165.75;5087039;28;20054;-71
2022/11/12 06:03:08;;;;;;;4.88;3.95;;;;;;;20.76;45.35;103166.03;5083571;28;20050;-71
2022/11/12 06:05:52;;;;;;;5.10;4.13;;;;;;;20.78;45.33;103160.59;5089698;28;20100;-70
2022/11/12 06:08:36;;;;;;;6.40;4.20;;;;;;;20.77;45.30;103154.47;5091282;28;20292;-71
2022/11/12 06:11:20;;;;;;;6.28;3.90;;;;;;;20.78;45.55;103150.00;5088133;28;20198;-71
2022/11/12 06:14:05;;;;;;;6.70;4.75;;;;;;;20.79;45.32;103143.75;5085526;28;21825;-71
2022/11/12 06:16:49;;;;;;;6.88;4.15;;;;;;;20.81;45.27;103152.38;5086717;28;20055;-71
2022/11/12 06:19:33;;;;;;;5.72;4.22;;;;;;;20.77;45.26;103166.88;5090878;28;20191;-71
2022/11/12 06:22:17;;;;;;;6.05;4.53;;;;;;;20.70;45.61;103168.38;5088189;28;20633;-71
2022/11/12 06:25:01;;;;;;;6.03;4.63;;;;;;;20.79;45.25;103152.53;5087181;28;20509;-71
2022/11/12 06:27:45;;;;;;;5.72;4.32;;;;;;;20.66;45.57;103137.81;5090746;28;20054;-71
2022/11/12 06:30:29;;;;;;;5.63;3.80;;;;;;;20.73;45.52;103139.81;5086490;28;20058;-71
2022/11/12 06:33:13;;;;;;;4.82;3.80;;;;;;;20.75;45.42;103152.91;5084908;28;20066;-71
2022/11/12 06:36:01;;;;;;;6.93;4.72;;;;;;;20.73;45.30;103153.06;5083362;28;20054;-71
2022/11/12 06:38:46;;;;;;;5.95;4.32;;;;;;;20.69;45.39;103148.16;5090062;28;20046;-71
2022/11/12 06:41:30;;;;;;;7.03;4.45;;;;;;;20.73;45.43;103142.47;5087003;28;20181;-70
2022/11/12 06:44:14;;;;;;;6.47;4.32;;;;;;;20.72;45.36;103134.66;5089169;28;20751;-71
2022/11/12 06:46:57;;;;;;;6.15;4.40;;;;;;;20.71;45.24;103136.47;5089191;28;20131;-71
2022/11/12 06:49:41;;;;;;;6.22;4.20;;;;;;;20.70;45.23;103149.81;5086854;28;20055;-71
2022/11/12 06:52:25;;;;;;;5.72;4.32;;;;;;;20.71;45.21;103168.22;5084476;28;20493;-71
2022/11/12 06:55:09;;;;;;;6.93;4.63;;;;;;;20.71;45.33;103159.44;5089252;28;20116;-71
2022/11/12 06:57:53;;;;;;;9.13;4.93;;;;;;;20.65;45.52;103150.22;5088329;28;20081;-71
2022/11/12 07:00:37;;;;;;;7.22;4.22;;;;;;;20.60;45.40;103162.16;5092157;28;20051;-71
2022/11/12 07:03:21;;;;;;;9.00;4.28;;;;;;;20.67;45.44;103174.75;5089401;28;20095;-70
2022/11/12 07:06:11;;;;;;;5.53;3.95;;;;;;;20.65;45.34;103178.50;5094522;28;20299;-71
2022/11/12 07:08:55;;;;;;;6.57;4.22;;;;;;;20.71;45.33;103184.13;5090587;28;20054;-70
2022/11/12 07:11:40;;;;;;;6.00;4.25;;;;;;;20.64;45.19;103182.09;5090619;28;20114;-70
2022/11/12 07:14:24;;;;;;;6.47;4.45;;;;;;;20.67;45.23;103188.00;5090445;28;20540;-70
2022/11/12 07:17:08;;;;;;;5.57;4.40;;;;;;;20.67;45.10;103195.09;5087309;28;20116;-71
2022/11/12 07:19:52;;;;;;;5.95;4.45;;;;;;;20.62;45.40;103211.34;5093250;28;20090;-71
2022/11/12 07:22:36;;;;;;;5.68;4.30;;;;;;;20.59;45.44;103208.97;5090651;28;20097;-71
2022/11/12 07:25:20;;;;;;;7.05;4.10;;;;;;;20.59;45.33;103205.47;5088586;28;20042;-70
2022/11/12 07:28:04;;;;;;;5.50;4.07;;;;;;;20.60;45.39;103189.47;5091687;28;20049;-70
2022/11/12 07:30:57;;;;;;;5.68;4.18;;;;;;;20.56;45.44;103185.41;5089484;28;20100;-70
2022/11/12 07:33:43;;;;;;;6.80;4.57;;;;;;;20.61;45.29;103206.19;5092937;28;20047;-71
2022/11/12 07:36:27;;;;;;;5.35;3.88;;;;;;;20.52;45.62;103206.00;5090790;28;20104;-71
2022/11/12 07:39:12;;;;;;;5.53;4.25;;;;;;;20.58;45.16;103194.03;5090928;28;20516;-71
2022/11/12 07:41:56;;;;;;;6.95;3.90;;;;;;;20.52;45.36;103190.09;5087640;28;20051;-71
2022/11/12 07:44:40;;;;;;;4.93;4.05;;;;;;;20.54;45.58;103186.50;5086541;28;20047;-71
2022/11/12 07:47:24;;;;;;;5.57;4.07;;;;;;;20.56;45.36;103203.91;5075537;28;20053;-70
2022/11/12 07:50:08;;;;;;;6.75;4.03;;;;;;;20.56;45.50;103218.97;5083426;28;20128;-70
2022/11/12 07:52:53;;;;;;;6.45;4.15;;;;;;;20.60;45.41;103220.38;5091100;28;20059;-71
2022/11/12 07:55:37;;;;;;;6.78;4.40;;;;;;;20.58;45.14;103211.72;5088684;28;20100;-71
2022/11/12 07:58:21;;;;;;;6.45;4.40;;;;;;;20.64;44.96;103214.69;5086732;28;20093;-71
2022/11/12 08:01:08;;;;;;;6.13;4.32;;;;;;;20.58;45.30;103225.81;5089572;28;20073;-71
2022/11/12 08:03:52;;;;;;;6.20;4.20;;;;;;;20.49;45.53;103227.41;5093562;28;20119;-71
2022/11/12 08:06:37;;;;;;;6.60;4.57;;;;;;;20.50;45.55;103239.69;5091584;28;20066;-71
2022/11/12 08:09:21;;;;;;;5.18;4.00;;;;;;;20.54;45.17;103224.38;5089740;28;20150;-71
2022/11/12 08:12:05;;;;;;;7.75;4.00;;;;;;;20.50;45.32;103215.88;5095279;28;20059;-71
2022/11/12 08:14:49;;;;;;;5.60;4.10;;;;;;;20.49;45.44;103235.38;5095801;28;20051;-71
2022/11/12 08:17:37;;;;;;;5.82;4.13;;;;;;;20.48;45.32;103244.28;5091505;28;20701;-70
2022/11/12 08:20:22;;;;;;;10.35;4.40;;;;;;;20.49;45.53;103255.69;5091070;28;20165;-71
2022/11/12 08:23:06;;;;;;;6.85;4.57;;;;;;;20.52;45.22;103247.50;5100664;28;20162;-71
2022/11/12 08:25:50;;;;;;;6.47;4.25;;;;;;;20.57;45.16;103252.41;5095915;28;20047;-71
2022/11/12 08:28:35;;;;;;;6.45;4.25;;;;;;;20.52;45.32;103239.56;5092840;28;20127;-70
2022/11/12 08:31:21;;;;;;;5.90;4.35;;;;;;;20.42;45.27;103254.50;5092958;28;20252;-71
2022/11/12 08:34:11;;;;;;;7.53;5.05;;;;;;;20.52;45.36;103253.63;5092823;28;20507;-70
2022/11/12 08:36:56;;;;;;;8.88;5.25;;;;;;;20.58;45.14;103252.28;5095618;28;20050;-71
2022/11/12 08:39:40;;;;;;;7.57;5.18;;;;;;;20.55;45.16;103241.94;5096296;28;20100;-71
2022/11/12 08:42:24;;;;;;;7.38;4.10;;;;;;;20.44;45.29;103226.94;5092343;28;20051;-71
2022/11/12 08:45:09;;;;;;;7.93;4.63;;;;;;;20.41;45.47;103247.53;5086178;28;20477;-70
2022/11/12 08:47:58;;;;;;;7.57;5.40;;;;;;;20.50;45.30;103249.44;5087878;28;21005;-70
2022/11/12 08:50:42;;;;;;;7.85;4.80;;;;;;;20.51;45.30;103251.97;5089503;28;20101;-69
2022/11/12 08:53:27;;;;;;;7.53;4.82;;;;;;;20.46;45.61;103247.97;5088197;28;20079;-69
2022/11/12 08:56:11;;;;;;;9.05;4.68;;;;;;;20.60;45.22;103244.22;5086686;28;20051;-70
2022/11/12 08:58:55;;;;;;;7.28;5.15;;;;;;;20.52;45.25;103240.41;5086804;28;20097;-71
2022/11/12 09:01:39;;;;;;;9.88;5.30;;;;;;;20.50;45.23;103244.16;5091943;28;20128;-71
2022/11/12 09:04:23;;;;;;;6.75;4.65;;;;;;;20.51;45.24;103251.97;5084981;28;20054;-71
2022/11/12 09:07:07;;;;;;;9.02;4.75;;;;;;;20.47;45.19;103252.34;5088172;28;20070;-70
2022/11/12 09:09:51;;;;;;;7.38;5.07;;;;;;;20.54;45.00;103248.22;5090209;28;20218;-70
2022/11/12 09:12:35;;;;;;;7.18;4.90;;;;;;;20.51;45.21;103251.13;5086693;28;20058;-70
2022/11/12 09:15:21;;;;;;;8.75;5.35;;;;;;;20.58;44.89;103249.63;5093547;28;20050;-70
2022/11/12 09:18:10;;;;;;;8.57;5.28;;;;;;;20.45;45.38;103251.59;5091618;28;20093;-70
2022/11/12 09:21:02;;;;;;;9.15;5.00;;;;;;;20.36;45.56;103245.22;5094820;28;20075;-70
2022/11/12 09:23:46;;;;;;;9.00;5.57;;;;;;;20.48;45.34;103252.22;5087999;28;20091;-71
2022/11/12 09:26:30;;;;;;;8.20;4.95;;;;;;;20.47;45.24;103260.28;5094448;28;20055;-70
2022/11/12 09:29:14;;;;;;;7.47;5.07;;;;;;;20.39;45.56;103258.22;5093888;28;20046;-70
2022/11/12 09:31:58;;;;;;;11.40;5.70;;;;;;;20.43;45.49;103264.97;5092451;28;20059;-70
2022/11/12 09:34:42;;;;;;;7.75;5.25;;;;;;;20.47;45.02;103270.88;5088560;28;20105;-70
2022/11/12 09:37:26;;;;;;;8.32;4.75;;;;;;;20.46;45.43;103261.22;5086479;28;20456;-69
2022/11/12 09:40:17;;;;;;;11.13;5.40;;;;;;;20.48;45.30;103251.38;5094767;28;20105;-69
2022/11/12 09:43:22;;;;;;;8.80;5.22;;;;;;;20.36;45.75;103253.16;5084574;28;20054;-70
2022/11/12 09:46:42;;;;;;;10.27;5.85;;;;;;;20.39;45.23;103236.19;5089666;28;20464;-70
2022/11/12 09:49:46;;;;;;;;;;;;;;;20.49;45.24;103261.00;5088851;28;20074;-70
2022/11/12 09:52:32;;;;;;;8.40;5.55;;;;;;;20.45;45.55;103259.53;5103876;27;20327;-70
2022/11/12 09:55:49;;;;;;;10.90;5.60;;;;;;;20.51;45.53;103253.75;5089482;28;20055;-69
2022/11/12 09:58:33;;;;;;;9.32;6.03;;;;;;;20.49;45.38;103243.31;5059370;28;20766;-70
2022/11/12 10:01:20;;;;;;;8.13;5.50;;;;;;;20.40;45.73;103249.31;5090810;28;20054;-70
2022/11/12 10:04:52;;;;;;;7.80;5.15;;;;;;;20.42;45.74;103254.50;5095319;28;20050;-70
2022/11/12 10:08:18;;;;;;;9.10;5.43;;;;;;;20.47;45.70;103257.63;5091241;28;20075;-71
2022/11/12 10:11:30;;;;;;;10.45;6.10;;;;;;;20.57;45.25;103253.25;5087017;28;20092;-70
2022/11/12 10:14:20;;;;;;;8.63;5.50;;;;;;;20.43;45.75;103254.38;5093981;28;20097;-70
2022/11/12 10:17:21;;;;;;;8.50;5.57;;;;;;;20.37;45.76;103260.13;5087600;28;20204;-71
2022/11/12 10:20:30;;;;;;;9.20;5.75;;;;;;;20.43;45.67;103262.31;5089842;28;20780;-70
2022/11/12 10:23:23;;;;;;;9.43;5.55;;;;;;;20.43;45.64;103264.97;5093470;28;20050;-71
2022/11/12 10:26:14;;;;;;;9.43;5.55;;;;;;;20.33;45.73;103256.06;5092726;28;20104;-70
2022/11/12 10:29:02;;;;;;;9.10;5.15;;;;;;;20.34;45.78;103247.16;5089565;28;20066;-71
2022/11/12 10:31:46;;;;;;;9.68;5.95;;;;;;;20.47;45.84;103252.34;5091323;28;20092;-69
2022/11/12 10:34:30;;;;;;;9.25;5.50;;;;;;;20.40;46.06;103254.59;5090602;28;20123;-69
2022/11/12 10:37:21;;;;;;;11.18;6.55;;;;;;;20.44;45.94;103253.41;5092650;28;20050;-69
2022/11/12 10:40:39;;;;;;;9.68;6.00;;;;;;;20.41;46.20;103251.00;5089471;28;20077;-71
2022/11/12 10:43:24;;;;;;;12.02;6.00;;;;;;;20.47;46.15;103239.94;5059987;28;20058;-68
2022/11/12 10:46:18;;;;;;;19.85;6.60;;;;;;;20.48;46.28;103231.03;5089010;28;20116;-68
2022/11/12 10:49:13;;;;;;;10.68;6.07;;;;;;;20.52;46.12;103229.81;5084915;28;20082;-69
2022/11/12 10:51:58;;;;;;;10.90;6.15;;;;;;;20.42;46.38;103223.59;5090957;28;20051;-68
2022/11/12 10:54:42;;;;;;;8.68;6.10;;;;;;;20.46;46.21;103232.09;5090629;28;20116;-68
2022/11/12 10:57:26;;;;;;;9.48;5.55;;;;;;;20.48;46.16;103230.19;5089606;28;20112;-68
2022/11/12 11:00:11;;;;;;;9.30;5.93;;;;;;;20.48;46.02;103235.50;5084026;28;20059;-68
2022/11/12 11:02:55;;;;;;;10.50;6.00;;;;;;;20.47;46.04;103228.53;5087717;28;20073;-68
2022/11/12 11:06:04;;;;;;;8.45;5.68;;;;;;;20.48;46.07;103227.56;5082848;28;20101;-68
2022/11/12 11:08:51;;;;;;;9.98;6.05;;;;;;;20.45;46.11;103218.03;5083558;28;20611;-68
2022/11/12 11:11:35;;;;;;;9.45;5.82;;;;;;;20.50;46.01;103217.69;5087627;28;20093;-68
2022/11/12 11:14:22;;;;;;;9.98;5.97;;;;;;;20.49;45.87;103216.84;5083858;28;20054;-68
2022/11/12 11:17:15;;;;;;;9.88;6.13;;;;;;;20.46;45.78;103225.00;5090136;28;20069;-68
2022/11/12 11:20:00;;;;;;;14.32;6.80;;;;;;;20.43;46.14;103216.47;5089865;28;20536;-69
2022/11/12 11:23:16;;;;;;;8.73;6.60;;;;;;;20.45;46.18;103204.78;5081649;28;20660;-69
2022/11/12 11:26:15;;;;;;;9.95;6.45;;;;;;;20.50;46.06;103201.78;5085848;28;20102;-68
2022/11/12 11:29:15;;;;;;;11.05;6.57;;;;;;;20.55;45.74;103204.06;5084142;28;20071;-69
2022/11/12 11:32:24;;;;;;;10.52;6.13;;;;;;;20.46;45.95;103206.47;5088078;28;20055;-69
2022/11/12 11:35:33;;;;;;;11.02;6.70;;;;;;;20.45;46.05;103201.31;5084345;28;20058;-70
2022/11/12 11:38:39;;;;;;;10.87;6.20;;;;;;;20.44;46.11;103203.13;5091348;28;20159;-72
2022/11/12 11:41:56;;;;;;;10.68;5.97;;;;;;;20.48;45.88;103191.34;5091818;28;20440;-73
2022/11/12 11:45:01;;;;;;;10.77;6.25;;;;;;;20.49;45.89;103198.31;5089647;28;20055;-69
2022/11/12 11:48:38;;;;;;;10.90;6.95;;;;;;;20.48;46.08;103209.03;5086296;28;20042;-69
2022/11/12 11:51:41;;;;;;;10.98;6.70;;;;;;;20.38;46.15;103216.00;5022019;28;20943;-69
2022/11/12 11:54:42;;;;;;;8.70;6.28;;;;;;;20.38;46.03;103216.00;5025696;28;20056;-69
2022/11/12 11:57:41;;;;;;;11.30;6.30;;;;;;;20.45;46.09;103207.44;5090545;28;20132;-69
2022/11/12 12:00:44;;;;;;;9.75;6.55;;;;;;;20.46;46.02;103203.81;5088669;28;20454;-69
2022/11/12 12:03:52;;;;;;;10.95;6.45;;;;;;;20.47;45.84;103210.00;5092982;28;20050;-69
2022/11/12 12:07:05;;;;;;;10.15;6.55;;;;;;;20.47;45.89;103202.06;5090773;28;20144;-69
2022/11/12 12:10:16;;;;;;;7.90;5.68;;;;;;;20.43;46.18;103198.78;5092628;28;20082;-69
2022/11/12 12:13:39;;;;;;;10.55;6.60;;;;;;;20.44;46.05;103196.97;5092961;28;20587;-69
2022/11/12 12:16:47;;;;;;;11.25;6.57;;;;;;;20.45;46.09;103196.84;5088303;28;20050;-69
2022/11/12 12:19:59;;;;;;;9.93;6.57;;;;;;;20.54;45.73;103191.78;5093546;28;20058;-69
2022/11/12 12:23:23;;;;;;;10.35;6.28;;;;;;;20.57;45.73;103192.38;5090244;28;20646;-69
2022/11/12 12:26:15;;;;;;;9.82;6.57;;;;;;;20.48;45.69;103185.19;5080966;28;20066;-68
2022/11/12 12:29:11;;;;;;;9.27;6.32;;;;;;;20.48;45.94;103188.69;5088360;28;20516;-69
2022/11/12 12:32:12;;;;;;;10.95;6.47;;;;;;;20.57;45.69;103189.72;5092921;28;20171;-69
2022/11/12 12:35:24;;;;;;;8.82;6.03;;;;;;;20.52;46.02;103187.47;5089661;28;20112;-69
2022/11/12 12:38:20;;;;;;;10.80;6.88;;;;;;;20.49;46.03;103184.25;5083069;28;20058;-69
2022/11/12 12:41:15;;;;;;;10.10;6.10;;;;;;;20.50;46.02;103196.50;5090574;28;20764;-68
2022/11/12 12:44:05;;;;;;;9.60;6.32;;;;;;;20.55;45.86;103194.31;5088492;28;20051;-69
2022/11/12 12:46:57;;;;;;;8.90;6.30;;;;;;;20.58;45.89;103187.91;5089673;28;20054;-69
2022/11/12 12:49:43;;;;;;;10.48;6.32;;;;;;;20.50;46.14;103177.97;5090601;28;20065;-69
2022/11/12 12:52:27;;;;;;;9.40;6.32;;;;;;;20.51;45.91;103166.41;5090546;28;20135;-69
2022/11/12 12:55:33;;;;;;;8.68;5.80;;;;;;;20.50;46.10;103170.88;5090925;28;20050;-69
2022/11/12 12:58:45;;;;;;;7.28;4.93;;;;;;;20.50;46.00;103173.53;5086103;28;20046;-69
2022/11/12 13:01:33;;;;;;;9.07;6.07;;;;;;;20.52;45.96;103179.53;5088252;28;20119;-69
2022/11/12 13:04:36;;;;;;;9.45;6.32;;;;;;;20.58;45.96;103175.50;5085519;28;20128;-69
2022/11/12 13:07:40;;;;;;;11.05;6.22;;;;;;;20.42;46.35;103164.53;5088227;28;20599;-69
2022/11/12 13:10:48;;;;;;;7.35;5.90;;;;;;;20.46;46.26;103161.47;5085657;28;20050;-69
2022/11/12 13:13:35;;;;;;;7.35;5.57;;;;;;;20.48;46.26;103156.09;5092405;28;20229;-70
2022/11/12 13:17:05;;;;;;;8.85;5.90;;;;;;;20.44;46.20;103150.19;5090833;28;20059;-70
2022/11/12 13:19:52;;;;;;;8.65;5.75;;;;;;;20.46;46.15;103153.53;5092352;28;20318;-70
2022/11/12 13:22:39;;;;;;;7.35;5.60;;;;;;;20.45;46.39;103156.31;5087425;28;20092;-70
2022/11/12 13:25:29;;;;;;;8.32;5.60;;;;;;;20.39;46.23;103157.66;5086619;28;20679;-70
2022/11/12 13:28:13;;;;;;;;;;;;;;;20.59;45.87;103142.78;5089799;28;20082;-69